sensor_id;sensor_type;location;lat;lon;timestamp;P1;durP1;ratioP1;P2;durP2;ratioP2
23270;SDS011;11804;51.118;17.058;2022-12-04T00:01:13;95.33;;;43.73;;
23270;SDS011;11804;51.118;17.058;2022-12-04T00:03:42;103.83;;;45.33;;
23270;SDS011;11804;51.118;17.058;2022-12-04T00:06:14;97.07;;;44.70;;
23270;SDS011;11804;51.118;17.058;2022-12-04T00:08:44;93.47;;;43.83;;
23270;SDS011;11804;51.118;17.058;2022-12-04T00:11:13;96.87;;;43.63;;
23270;SDS011;11804;51.118;17.058;2022-12-04T00:13:43;98.43;;;45.03;;
23270;SDS011;11804;51.118;17.058;2022-12-04T00:16:12;95.60;;;47.23;;
23270;SDS011;11804;51.118;17.058;2022-12-04T00:18:43;99.33;;;45.83;;
23270;SDS011;11804;51.118;17.058;2022-12-04T00:21:12;101.30;;;47.87;;
23270;SDS011;11804;51.118;17.058;2022-12-04T00:23:41;93.23;;;44.77;;
23270;SDS011;11804;51.118;17.058;2022-12-04T00:26:11;92.70;;;43.50;;
23270;SDS011;11804;51.118;17.058;2022-12-04T00:28:40;92.50;;;43.70;;
23270;SDS011;11804;51.118;17.058;2022-12-04T00:31:10;98.23;;;45.50;;
23270;SDS011;11804;51.118;17.058;2022-12-04T00:33:39;98.07;;;44.90;;
23270;SDS011;11804;51.118;17.058;2022-12-04T00:36:08;88.97;;;43.83;;
23270;SDS011;11804;51.118;17.058;2022-12-04T00:38:40;99.07;;;44.70;;
23270;SDS011;11804;51.118;17.058;2022-12-04T00:41:10;96.00;;;44.97;;
23270;SDS011;11804;51.118;17.058;2022-12-04T00:43:39;94.27;;;46.17;;
23270;SDS011;11804;51.118;17.058;2022-12-04T00:46:07;98.77;;;46.10;;
23270;SDS011;11804;51.118;17.058;2022-12-04T00:48:35;98.97;;;44.63;;
23270;SDS011;11804;51.118;17.058;2022-12-04T00:51:03;98.50;;;44.30;;
23270;SDS011;11804;51.118;17.058;2022-12-04T00:53:33;96.67;;;45.10;;
23270;SDS011;11804;51.118;17.058;2022-12-04T00:56:06;95.53;;;44.90;;
23270;SDS011;11804;51.118;17.058;2022-12-04T00:58:35;95.30;;;45.97;;
23270;SDS011;11804;51.118;17.058;2022-12-04T01:01:08;95.33;;;45.90;;
23270;SDS011;11804;51.118;17.058;2022-12-04T01:03:39;102.27;;;46.50;;
23270;SDS011;11804;51.118;17.058;2022-12-04T01:06:28;94.00;;;45.57;;
23270;SDS011;11804;51.118;17.058;2022-12-04T01:08:57;96.13;;;45.20;;
23270;SDS011;11804;51.118;17.058;2022-12-04T01:11:28;95.23;;;45.23;;
23270;SDS011;11804;51.118;17.058;2022-12-04T01:13:56;93.57;;;45.73;;
23270;SDS011;11804;51.118;17.058;2022-12-04T01:16:27;87.63;;;43.97;;
23270;SDS011;11804;51.118;17.058;2022-12-04T01:18:56;92.63;;;45.93;;
23270;SDS011;11804;51.118;17.058;2022-12-04T01:21:24;100.00;;;45.97;;
23270;SDS011;11804;51.118;17.058;2022-12-04T01:23:51;92.97;;;44.00;;
23270;SDS011;11804;51.118;17.058;2022-12-04T01:26:20;93.17;;;45.40;;
23270;SDS011;11804;51.118;17.058;2022-12-04T01:28:48;93.63;;;43.80;;
23270;SDS011;11804;51.118;17.058;2022-12-04T01:31:17;96.33;;;44.43;;
23270;SDS011;11804;51.118;17.058;2022-12-04T01:33:46;94.73;;;44.33;;
23270;SDS011;11804;51.118;17.058;2022-12-04T01:36:19;98.17;;;46.83;;
23270;SDS011;11804;51.118;17.058;2022-12-04T01:38:48;97.40;;;46.27;;
23270;SDS011;11804;51.118;17.058;2022-12-04T01:41:16;95.30;;;44.93;;
23270;SDS011;11804;51.118;17.058;2022-12-04T01:46:40;95.97;;;45.70;;
23270;SDS011;11804;51.118;17.058;2022-12-04T01:49:11;100.70;;;45.40;;
23270;SDS011;11804;51.118;17.058;2022-12-04T01:51:45;92.63;;;44.47;;
23270;SDS011;11804;51.118;17.058;2022-12-04T01:54:16;91.50;;;43.50;;
23270;SDS011;11804;51.118;17.058;2022-12-04T01:56:49;96.07;;;45.20;;
23270;SDS011;11804;51.118;17.058;2022-12-04T01:59:20;101.03;;;48.33;;
23270;SDS011;11804;51.118;17.058;2022-12-04T02:01:59;98.53;;;45.60;;
23270;SDS011;11804;51.118;17.058;2022-12-04T02:04:35;95.63;;;45.03;;
23270;SDS011;11804;51.118;17.058;2022-12-04T02:07:04;97.93;;;44.87;;
23270;SDS011;11804;51.118;17.058;2022-12-04T02:09:31;92.93;;;44.60;;
23270;SDS011;11804;51.118;17.058;2022-12-04T02:17:21;95.77;;;46.27;;
23270;SDS011;11804;51.118;17.058;2022-12-04T02:20:20;99.03;;;45.03;;
23270;SDS011;11804;51.118;17.058;2022-12-04T02:28:01;92.77;;;43.80;;
23270;SDS011;11804;51.118;17.058;2022-12-04T02:30:40;96.70;;;45.63;;
23270;SDS011;11804;51.118;17.058;2022-12-04T02:33:27;97.17;;;45.87;;
23270;SDS011;11804;51.118;17.058;2022-12-04T02:35:58;100.10;;;46.57;;
23270;SDS011;11804;51.118;17.058;2022-12-04T02:38:24;96.10;;;45.40;;
23270;SDS011;11804;51.118;17.058;2022-12-04T02:43:35;99.20;;;46.03;;
23270;SDS011;11804;51.118;17.058;2022-12-04T02:46:08;103.60;;;47.17;;
23270;SDS011;11804;51.118;17.058;2022-12-04T02:48:38;105.10;;;49.97;;
23270;SDS011;11804;51.118;17.058;2022-12-04T02:51:08;124.17;;;54.10;;
23270;SDS011;11804;51.118;17.058;2022-12-04T02:53:39;119.47;;;53.63;;
23270;SDS011;11804;51.118;17.058;2022-12-04T02:56:09;98.87;;;46.87;;
23270;SDS011;11804;51.118;17.058;2022-12-04T03:01:35;98.40;;;47.50;;
23270;SDS011;11804;51.118;17.058;2022-12-04T03:04:15;99.53;;;46.90;;
23270;SDS011;11804;51.118;17.058;2022-12-04T03:06:48;94.87;;;45.90;;
23270;SDS011;11804;51.118;17.058;2022-12-04T03:09:51;89.80;;;44.43;;
23270;SDS011;11804;51.118;17.058;2022-12-04T03:12:02;92.10;;;44.33;;
23270;SDS011;11804;51.118;17.058;2022-12-04T03:14:34;92.67;;;43.83;;
23270;SDS011;11804;51.118;17.058;2022-12-04T03:17:05;98.47;;;45.63;;
23270;SDS011;11804;51.118;17.058;2022-12-04T03:19:37;89.87;;;43.60;;
23270;SDS011;11804;51.118;17.058;2022-12-04T03:22:09;94.17;;;45.20;;
23270;SDS011;11804;51.118;17.058;2022-12-04T03:24:40;98.03;;;44.80;;
23270;SDS011;11804;51.118;17.058;2022-12-04T03:27:22;97.13;;;45.33;;
23270;SDS011;11804;51.118;17.058;2022-12-04T03:32:49;98.80;;;45.37;;
23270;SDS011;11804;51.118;17.058;2022-12-04T03:38:19;97.67;;;44.77;;
23270;SDS011;11804;51.118;17.058;2022-12-04T03:40:59;99.60;;;48.27;;
23270;SDS011;11804;51.118;17.058;2022-12-04T03:46:11;100.70;;;47.57;;
23270;SDS011;11804;51.118;17.058;2022-12-04T03:48:41;97.63;;;46.60;;
23270;SDS011;11804;51.118;17.058;2022-12-04T03:51:32;97.63;;;47.03;;
23270;SDS011;11804;51.118;17.058;2022-12-04T03:54:11;100.67;;;49.03;;
23270;SDS011;11804;51.118;17.058;2022-12-04T03:56:44;106.03;;;48.73;;
23270;SDS011;11804;51.118;17.058;2022-12-04T03:59:29;102.30;;;48.73;;
23270;SDS011;11804;51.118;17.058;2022-12-04T04:02:04;101.20;;;47.10;;
23270;SDS011;11804;51.118;17.058;2022-12-04T04:04:35;102.93;;;47.17;;
23270;SDS011;11804;51.118;17.058;2022-12-04T04:07:10;102.17;;;47.17;;
23270;SDS011;11804;51.118;17.058;2022-12-04T04:09:39;99.00;;;45.93;;
23270;SDS011;11804;51.118;17.058;2022-12-04T04:12:19;94.27;;;46.83;;
23270;SDS011;11804;51.118;17.058;2022-12-04T04:14:53;98.67;;;45.10;;
23270;SDS011;11804;51.118;17.058;2022-12-04T04:17:42;97.47;;;47.90;;
23270;SDS011;11804;51.118;17.058;2022-12-04T04:20:32;103.83;;;45.87;;
23270;SDS011;11804;51.118;17.058;2022-12-04T04:23:20;98.20;;;47.03;;
23270;SDS011;11804;51.118;17.058;2022-12-04T04:26:07;101.27;;;45.80;;
23270;SDS011;11804;51.118;17.058;2022-12-04T04:28:37;98.37;;;46.57;;
23270;SDS011;11804;51.118;17.058;2022-12-04T04:42:20;94.00;;;45.07;;
23270;SDS011;11804;51.118;17.058;2022-12-04T04:45:01;101.20;;;47.20;;
23270;SDS011;11804;51.118;17.058;2022-12-04T04:47:38;99.87;;;46.93;;
23270;SDS011;11804;51.118;17.058;2022-12-04T04:50:11;96.60;;;45.97;;
23270;SDS011;11804;51.118;17.058;2022-12-04T04:52:42;103.37;;;47.17;;
23270;SDS011;11804;51.118;17.058;2022-12-04T04:55:07;95.17;;;46.33;;
23270;SDS011;11804;51.118;17.058;2022-12-04T04:57:36;96.23;;;45.47;;
23270;SDS011;11804;51.118;17.058;2022-12-04T05:00:06;100.20;;;45.50;;
23270;SDS011;11804;51.118;17.058;2022-12-04T05:02:40;100.30;;;46.23;;
23270;SDS011;11804;51.118;17.058;2022-12-04T05:05:08;97.83;;;45.97;;
23270;SDS011;11804;51.118;17.058;2022-12-04T05:07:37;100.83;;;45.83;;
23270;SDS011;11804;51.118;17.058;2022-12-04T05:10:05;97.20;;;46.13;;
23270;SDS011;11804;51.118;17.058;2022-12-04T05:12:34;100.87;;;48.73;;
23270;SDS011;11804;51.118;17.058;2022-12-04T05:15:02;95.87;;;47.10;;
23270;SDS011;11804;51.118;17.058;2022-12-04T05:17:30;95.73;;;45.53;;
23270;SDS011;11804;51.118;17.058;2022-12-04T05:19:57;96.23;;;45.70;;
23270;SDS011;11804;51.118;17.058;2022-12-04T05:22:26;96.47;;;46.13;;
23270;SDS011;11804;51.118;17.058;2022-12-04T05:24:58;96.07;;;47.13;;
23270;SDS011;11804;51.118;17.058;2022-12-04T05:27:27;99.30;;;46.53;;
23270;SDS011;11804;51.118;17.058;2022-12-04T05:29:56;102.07;;;46.10;;
23270;SDS011;11804;51.118;17.058;2022-12-04T05:32:25;106.03;;;48.77;;
23270;SDS011;11804;51.118;17.058;2022-12-04T05:34:54;101.13;;;48.43;;
23270;SDS011;11804;51.118;17.058;2022-12-04T05:37:23;106.07;;;48.77;;
23270;SDS011;11804;51.118;17.058;2022-12-04T05:39:51;100.20;;;47.50;;
23270;SDS011;11804;51.118;17.058;2022-12-04T05:42:19;98.23;;;46.13;;
23270;SDS011;11804;51.118;17.058;2022-12-04T05:44:48;101.30;;;48.40;;
23270;SDS011;11804;51.118;17.058;2022-12-04T05:47:15;100.97;;;47.23;;
23270;SDS011;11804;51.118;17.058;2022-12-04T05:49:43;102.27;;;48.27;;
23270;SDS011;11804;51.118;17.058;2022-12-04T05:52:10;99.10;;;46.93;;
23270;SDS011;11804;51.118;17.058;2022-12-04T05:54:38;99.97;;;46.20;;
23270;SDS011;11804;51.118;17.058;2022-12-04T05:57:05;97.40;;;47.50;;
23270;SDS011;11804;51.118;17.058;2022-12-04T05:59:33;104.40;;;50.70;;
23270;SDS011;11804;51.118;17.058;2022-12-04T06:02:01;103.40;;;47.90;;
23270;SDS011;11804;51.118;17.058;2022-12-04T06:04:29;99.60;;;46.80;;
23270;SDS011;11804;51.118;17.058;2022-12-04T06:06:56;96.57;;;48.67;;
23270;SDS011;11804;51.118;17.058;2022-12-04T06:09:24;98.70;;;46.70;;
23270;SDS011;11804;51.118;17.058;2022-12-04T06:11:55;105.23;;;49.77;;
23270;SDS011;11804;51.118;17.058;2022-12-04T06:14:22;99.73;;;47.93;;
23270;SDS011;11804;51.118;17.058;2022-12-04T06:16:51;99.47;;;47.83;;
23270;SDS011;11804;51.118;17.058;2022-12-04T06:19:18;101.73;;;47.47;;
23270;SDS011;11804;51.118;17.058;2022-12-04T06:21:49;109.90;;;50.63;;
23270;SDS011;11804;51.118;17.058;2022-12-04T06:24:22;106.67;;;49.13;;
23270;SDS011;11804;51.118;17.058;2022-12-04T06:26:54;108.67;;;51.17;;
23270;SDS011;11804;51.118;17.058;2022-12-04T06:29:23;108.37;;;49.90;;
23270;SDS011;11804;51.118;17.058;2022-12-04T06:31:51;107.77;;;52.80;;
23270;SDS011;11804;51.118;17.058;2022-12-04T06:34:18;116.20;;;53.53;;
23270;SDS011;11804;51.118;17.058;2022-12-04T06:36:46;110.03;;;52.67;;
23270;SDS011;11804;51.118;17.058;2022-12-04T06:39:13;111.07;;;53.10;;
23270;SDS011;11804;51.118;17.058;2022-12-04T06:41:41;107.37;;;52.20;;
23270;SDS011;11804;51.118;17.058;2022-12-04T06:44:08;105.80;;;50.97;;
23270;SDS011;11804;51.118;17.058;2022-12-04T06:46:36;107.77;;;52.93;;
23270;SDS011;11804;51.118;17.058;2022-12-04T06:49:03;113.93;;;53.67;;
23270;SDS011;11804;51.118;17.058;2022-12-04T06:51:32;109.70;;;54.07;;
23270;SDS011;11804;51.118;17.058;2022-12-04T06:54:01;103.90;;;51.23;;
23270;SDS011;11804;51.118;17.058;2022-12-04T06:56:31;99.60;;;50.83;;
23270;SDS011;11804;51.118;17.058;2022-12-04T06:59:00;108.53;;;50.57;;
23270;SDS011;11804;51.118;17.058;2022-12-04T07:01:30;104.17;;;50.37;;
23270;SDS011;11804;51.118;17.058;2022-12-04T07:03:59;103.13;;;49.70;;
23270;SDS011;11804;51.118;17.058;2022-12-04T07:06:30;101.77;;;49.70;;
23270;SDS011;11804;51.118;17.058;2022-12-04T07:09:00;103.53;;;50.90;;
23270;SDS011;11804;51.118;17.058;2022-12-04T07:11:30;104.33;;;51.53;;
23270;SDS011;11804;51.118;17.058;2022-12-04T07:13:58;106.10;;;52.97;;
23270;SDS011;11804;51.118;17.058;2022-12-04T07:16:27;105.00;;;52.73;;
23270;SDS011;11804;51.118;17.058;2022-12-04T07:18:55;100.03;;;51.23;;
23270;SDS011;11804;51.118;17.058;2022-12-04T07:21:25;101.43;;;50.47;;
23270;SDS011;11804;51.118;17.058;2022-12-04T07:23:56;96.37;;;48.40;;
23270;SDS011;11804;51.118;17.058;2022-12-04T07:26:25;98.17;;;49.13;;
23270;SDS011;11804;51.118;17.058;2022-12-04T07:28:53;101.50;;;50.73;;
23270;SDS011;11804;51.118;17.058;2022-12-04T07:31:22;104.27;;;48.90;;
23270;SDS011;11804;51.118;17.058;2022-12-04T07:33:51;97.30;;;49.47;;
23270;SDS011;11804;51.118;17.058;2022-12-04T07:36:21;101.17;;;49.60;;
23270;SDS011;11804;51.118;17.058;2022-12-04T07:38:50;99.33;;;51.03;;
23270;SDS011;11804;51.118;17.058;2022-12-04T07:41:18;99.80;;;50.10;;
23270;SDS011;11804;51.118;17.058;2022-12-04T07:43:46;108.63;;;52.83;;
23270;SDS011;11804;51.118;17.058;2022-12-04T07:46:14;106.57;;;54.63;;
23270;SDS011;11804;51.118;17.058;2022-12-04T07:48:44;103.70;;;52.13;;
23270;SDS011;11804;51.118;17.058;2022-12-04T07:51:17;94.97;;;50.60;;
23270;SDS011;11804;51.118;17.058;2022-12-04T07:53:45;101.30;;;52.80;;
23270;SDS011;11804;51.118;17.058;2022-12-04T07:56:13;105.23;;;54.43;;
23270;SDS011;11804;51.118;17.058;2022-12-04T07:58:42;102.40;;;51.33;;
23270;SDS011;11804;51.118;17.058;2022-12-04T08:01:10;106.07;;;50.93;;
23270;SDS011;11804;51.118;17.058;2022-12-04T08:03:40;106.33;;;53.37;;
23270;SDS011;11804;51.118;17.058;2022-12-04T08:06:08;107.43;;;54.13;;
23270;SDS011;11804;51.118;17.058;2022-12-04T08:08:37;101.60;;;50.03;;
23270;SDS011;11804;51.118;17.058;2022-12-04T08:11:10;104.13;;;53.73;;
23270;SDS011;11804;51.118;17.058;2022-12-04T08:13:35;104.43;;;53.33;;
23270;SDS011;11804;51.118;17.058;2022-12-04T08:16:04;101.20;;;52.03;;
23270;SDS011;11804;51.118;17.058;2022-12-04T08:18:33;101.60;;;52.23;;
23270;SDS011;11804;51.118;17.058;2022-12-04T08:21:10;99.47;;;50.33;;
23270;SDS011;11804;51.118;17.058;2022-12-04T08:23:35;100.33;;;53.93;;
23270;SDS011;11804;51.118;17.058;2022-12-04T08:26:06;95.30;;;51.13;;
23270;SDS011;11804;51.118;17.058;2022-12-04T08:28:35;107.93;;;54.63;;
23270;SDS011;11804;51.118;17.058;2022-12-04T08:31:14;98.60;;;50.83;;
23270;SDS011;11804;51.118;17.058;2022-12-04T08:33:35;102.60;;;53.13;;
23270;SDS011;11804;51.118;17.058;2022-12-04T08:36:06;104.50;;;54.23;;
23270;SDS011;11804;51.118;17.058;2022-12-04T08:38:36;107.93;;;52.67;;
23270;SDS011;11804;51.118;17.058;2022-12-04T08:41:04;103.97;;;52.70;;
23270;SDS011;11804;51.118;17.058;2022-12-04T08:43:33;100.53;;;51.80;;
23270;SDS011;11804;51.118;17.058;2022-12-04T08:46:01;97.80;;;51.03;;
23270;SDS011;11804;51.118;17.058;2022-12-04T08:48:31;99.63;;;53.33;;
23270;SDS011;11804;51.118;17.058;2022-12-04T08:51:00;97.87;;;49.93;;
23270;SDS011;11804;51.118;17.058;2022-12-04T08:53:29;104.50;;;54.63;;
23270;SDS011;11804;51.118;17.058;2022-12-04T08:55:59;92.73;;;50.03;;
23270;SDS011;11804;51.118;17.058;2022-12-04T08:58:26;99.17;;;52.13;;
23270;SDS011;11804;51.118;17.058;2022-12-04T09:00:54;97.80;;;50.57;;
23270;SDS011;11804;51.118;17.058;2022-12-04T09:03:22;102.27;;;51.80;;
23270;SDS011;11804;51.118;17.058;2022-12-04T09:05:49;95.17;;;51.27;;
23270;SDS011;11804;51.118;17.058;2022-12-04T09:08:17;98.00;;;50.33;;
23270;SDS011;11804;51.118;17.058;2022-12-04T09:10:44;98.47;;;52.13;;
23270;SDS011;11804;51.118;17.058;2022-12-04T09:13:12;89.17;;;49.40;;
23270;SDS011;11804;51.118;17.058;2022-12-04T09:15:39;90.20;;;49.57;;
23270;SDS011;11804;51.118;17.058;2022-12-04T09:18:07;95.10;;;50.87;;
23270;SDS011;11804;51.118;17.058;2022-12-04T09:20:35;91.03;;;49.13;;
23270;SDS011;11804;51.118;17.058;2022-12-04T09:23:04;91.73;;;48.57;;
23270;SDS011;11804;51.118;17.058;2022-12-04T09:25:35;85.30;;;48.03;;
23270;SDS011;11804;51.118;17.058;2022-12-04T09:28:03;86.03;;;46.67;;
23270;SDS011;11804;51.118;17.058;2022-12-04T09:30:31;89.30;;;47.67;;
23270;SDS011;11804;51.118;17.058;2022-12-04T09:33:00;80.77;;;47.50;;
23270;SDS011;11804;51.118;17.058;2022-12-04T09:35:27;73.93;;;43.47;;
23270;SDS011;11804;51.118;17.058;2022-12-04T09:37:55;74.47;;;41.03;;
23270;SDS011;11804;51.118;17.058;2022-12-04T09:40:28;74.87;;;41.73;;
23270;SDS011;11804;51.118;17.058;2022-12-04T09:45:40;72.40;;;42.37;;
23270;SDS011;11804;51.118;17.058;2022-12-04T09:48:04;71.53;;;44.30;;
23270;SDS011;11804;51.118;17.058;2022-12-04T09:50:36;72.57;;;41.20;;
23270;SDS011;11804;51.118;17.058;2022-12-04T09:53:09;68.50;;;38.47;;
23270;SDS011;11804;51.118;17.058;2022-12-04T09:55:42;70.90;;;41.90;;
23270;SDS011;11804;51.118;17.058;2022-12-04T09:58:31;67.87;;;38.77;;
23270;SDS011;11804;51.118;17.058;2022-12-04T10:00:56;74.57;;;39.93;;
23270;SDS011;11804;51.118;17.058;2022-12-04T10:03:25;66.27;;;38.47;;
23270;SDS011;11804;51.118;17.058;2022-12-04T10:06:11;63.53;;;37.47;;
23270;SDS011;11804;51.118;17.058;2022-12-04T10:08:54;64.50;;;38.27;;
23270;SDS011;11804;51.118;17.058;2022-12-04T10:11:50;62.83;;;36.57;;
23270;SDS011;11804;51.118;17.058;2022-12-04T10:14:13;65.30;;;37.30;;
23270;SDS011;11804;51.118;17.058;2022-12-04T10:19:29;58.50;;;34.83;;
23270;SDS011;11804;51.118;17.058;2022-12-04T10:24:58;60.43;;;35.13;;
23270;SDS011;11804;51.118;17.058;2022-12-04T10:27:28;61.30;;;37.60;;
23270;SDS011;11804;51.118;17.058;2022-12-04T10:30:06;53.93;;;34.57;;
23270;SDS011;11804;51.118;17.058;2022-12-04T10:32:43;56.90;;;34.03;;
23270;SDS011;11804;51.118;17.058;2022-12-04T10:37:54;53.77;;;32.57;;
23270;SDS011;11804;51.118;17.058;2022-12-04T10:40:32;56.20;;;34.63;;
23270;SDS011;11804;51.118;17.058;2022-12-04T10:45:49;54.80;;;33.60;;
23270;SDS011;11804;51.118;17.058;2022-12-04T10:48:19;52.53;;;32.67;;
23270;SDS011;11804;51.118;17.058;2022-12-04T10:50:50;58.77;;;35.57;;
23270;SDS011;11804;51.118;17.058;2022-12-04T10:53:18;56.43;;;33.70;;
23270;SDS011;11804;51.118;17.058;2022-12-04T10:55:48;54.80;;;33.33;;
23270;SDS011;11804;51.118;17.058;2022-12-04T10:58:16;54.43;;;33.80;;
23270;SDS011;11804;51.118;17.058;2022-12-04T11:00:45;58.37;;;35.27;;
23270;SDS011;11804;51.118;17.058;2022-12-04T11:03:25;57.67;;;34.60;;
23270;SDS011;11804;51.118;17.058;2022-12-04T11:05:55;61.53;;;34.03;;
23270;SDS011;11804;51.118;17.058;2022-12-04T11:08:47;54.70;;;32.13;;
23270;SDS011;11804;51.118;17.058;2022-12-04T11:11:11;56.20;;;33.90;;
23270;SDS011;11804;51.118;17.058;2022-12-04T11:13:40;52.90;;;33.47;;
23270;SDS011;11804;51.118;17.058;2022-12-04T11:16:08;53.47;;;32.70;;
23270;SDS011;11804;51.118;17.058;2022-12-04T11:18:48;55.13;;;33.33;;
23270;SDS011;11804;51.118;17.058;2022-12-04T11:21:18;53.37;;;34.03;;
23270;SDS011;11804;51.118;17.058;2022-12-04T11:23:48;52.90;;;33.10;;
23270;SDS011;11804;51.118;17.058;2022-12-04T11:26:17;51.97;;;31.03;;
23270;SDS011;11804;51.118;17.058;2022-12-04T11:28:56;55.70;;;31.77;;
23270;SDS011;11804;51.118;17.058;2022-12-04T11:31:30;52.70;;;32.17;;
23270;SDS011;11804;51.118;17.058;2022-12-04T11:34:03;51.67;;;32.13;;
23270;SDS011;11804;51.118;17.058;2022-12-04T11:36:38;53.93;;;31.87;;
23270;SDS011;11804;51.118;17.058;2022-12-04T11:41:40;53.67;;;31.43;;
23270;SDS011;11804;51.118;17.058;2022-12-04T11:44:21;52.83;;;31.47;;
23270;SDS011;11804;51.118;17.058;2022-12-04T11:46:55;48.30;;;29.27;;
23270;SDS011;11804;51.118;17.058;2022-12-04T11:49:27;47.97;;;29.67;;
23270;SDS011;11804;51.118;17.058;2022-12-04T12:00:15;46.93;;;29.53;;
23270;SDS011;11804;51.118;17.058;2022-12-04T12:05:53;47.17;;;29.00;;
23270;SDS011;11804;51.118;17.058;2022-12-04T12:11:20;44.27;;;28.37;;
23270;SDS011;11804;51.118;17.058;2022-12-04T12:14:07;48.67;;;29.10;;
23270;SDS011;11804;51.118;17.058;2022-12-04T12:27:36;45.00;;;27.23;;
23270;SDS011;11804;51.118;17.058;2022-12-04T12:30:07;44.83;;;27.47;;
23270;SDS011;11804;51.118;17.058;2022-12-04T12:32:50;45.00;;;26.00;;
23270;SDS011;11804;51.118;17.058;2022-12-04T12:35:37;49.03;;;29.33;;
23270;SDS011;11804;51.118;17.058;2022-12-04T12:38:24;50.83;;;31.77;;
23270;SDS011;11804;51.118;17.058;2022-12-04T12:40:50;54.03;;;34.60;;
23270;SDS011;11804;51.118;17.058;2022-12-04T12:43:30;57.30;;;34.87;;
23270;SDS011;11804;51.118;17.058;2022-12-04T12:46:01;59.10;;;34.70;;
23270;SDS011;11804;51.118;17.058;2022-12-04T12:51:20;58.70;;;35.37;;
23270;SDS011;11804;51.118;17.058;2022-12-04T12:53:55;59.00;;;34.03;;
23270;SDS011;11804;51.118;17.058;2022-12-04T12:56:40;61.07;;;35.90;;
23270;SDS011;11804;51.118;17.058;2022-12-04T12:59:11;58.17;;;34.93;;
23270;SDS011;11804;51.118;17.058;2022-12-04T13:01:43;55.43;;;32.87;;
23270;SDS011;11804;51.118;17.058;2022-12-04T13:04:19;56.07;;;33.10;;
23270;SDS011;11804;51.118;17.058;2022-12-04T13:06:52;59.13;;;34.10;;
23270;SDS011;11804;51.118;17.058;2022-12-04T13:09:25;54.47;;;33.07;;
23270;SDS011;11804;51.118;17.058;2022-12-04T13:12:05;52.13;;;31.30;;
23270;SDS011;11804;51.118;17.058;2022-12-04T13:14:33;57.47;;;33.37;;
23270;SDS011;11804;51.118;17.058;2022-12-04T13:17:01;50.20;;;31.63;;
23270;SDS011;11804;51.118;17.058;2022-12-04T13:19:39;50.07;;;31.90;;
23270;SDS011;11804;51.118;17.058;2022-12-04T13:27:28;47.30;;;27.57;;
23270;SDS011;11804;51.118;17.058;2022-12-04T13:30:04;43.20;;;26.10;;
23270;SDS011;11804;51.118;17.058;2022-12-04T13:35:31;44.23;;;26.80;;
23270;SDS011;11804;51.118;17.058;2022-12-04T13:38:04;48.30;;;30.77;;
23270;SDS011;11804;51.118;17.058;2022-12-04T13:41:05;59.13;;;39.07;;
23270;SDS011;11804;51.118;17.058;2022-12-04T13:43:24;50.20;;;29.83;;
23270;SDS011;11804;51.118;17.058;2022-12-04T13:45:54;47.37;;;29.50;;
23270;SDS011;11804;51.118;17.058;2022-12-04T13:51:06;48.63;;;28.90;;
23270;SDS011;11804;51.118;17.058;2022-12-04T13:53:36;48.33;;;28.33;;
23270;SDS011;11804;51.118;17.058;2022-12-04T13:56:06;47.93;;;29.73;;
23270;SDS011;11804;51.118;17.058;2022-12-04T13:58:36;48.83;;;28.67;;
23270;SDS011;11804;51.118;17.058;2022-12-04T14:01:19;52.93;;;30.17;;
23270;SDS011;11804;51.118;17.058;2022-12-04T14:03:53;47.30;;;29.37;;
23270;SDS011;11804;51.118;17.058;2022-12-04T14:06:27;46.97;;;28.33;;
23270;SDS011;11804;51.118;17.058;2022-12-04T14:08:57;47.53;;;29.33;;
23270;SDS011;11804;51.118;17.058;2022-12-04T14:11:26;45.90;;;28.47;;
23270;SDS011;11804;51.118;17.058;2022-12-04T14:13:57;44.73;;;26.77;;
23270;SDS011;11804;51.118;17.058;2022-12-04T14:16:29;43.57;;;26.87;;
23270;SDS011;11804;51.118;17.058;2022-12-04T14:19:21;44.27;;;27.40;;
23270;SDS011;11804;51.118;17.058;2022-12-04T14:21:39;46.30;;;27.10;;
23270;SDS011;11804;51.118;17.058;2022-12-04T14:24:32;45.83;;;27.30;;
23270;SDS011;11804;51.118;17.058;2022-12-04T14:26:55;45.57;;;27.27;;
23270;SDS011;11804;51.118;17.058;2022-12-04T14:29:43;46.60;;;27.77;;
23270;SDS011;11804;51.118;17.058;2022-12-04T14:32:13;47.30;;;29.27;;
23270;SDS011;11804;51.118;17.058;2022-12-04T14:34:43;54.87;;;29.37;;
23270;SDS011;11804;51.118;17.058;2022-12-04T14:37:17;48.43;;;29.30;;
23270;SDS011;11804;51.118;17.058;2022-12-04T14:39:49;47.40;;;29.43;;
23270;SDS011;11804;51.118;17.058;2022-12-04T14:42:22;48.87;;;29.60;;
23270;SDS011;11804;51.118;17.058;2022-12-04T14:44:55;51.43;;;29.50;;
23270;SDS011;11804;51.118;17.058;2022-12-04T14:50:38;48.73;;;29.13;;
23270;SDS011;11804;51.118;17.058;2022-12-04T14:56:03;50.30;;;28.47;;
23270;SDS011;11804;51.118;17.058;2022-12-04T14:58:31;49.37;;;28.37;;
23270;SDS011;11804;51.118;17.058;2022-12-04T15:01:01;45.00;;;28.00;;
23270;SDS011;11804;51.118;17.058;2022-12-04T15:03:41;49.60;;;29.17;;
23270;SDS011;11804;51.118;17.058;2022-12-04T15:06:09;47.07;;;28.77;;
23270;SDS011;11804;51.118;17.058;2022-12-04T15:08:51;47.07;;;29.23;;
23270;SDS011;11804;51.118;17.058;2022-12-04T15:11:23;51.30;;;30.17;;
23270;SDS011;11804;51.118;17.058;2022-12-04T15:14:10;47.77;;;28.83;;
23270;SDS011;11804;51.118;17.058;2022-12-04T15:16:39;50.20;;;29.40;;
23270;SDS011;11804;51.118;17.058;2022-12-04T15:19:16;53.70;;;32.13;;
23270;SDS011;11804;51.118;17.058;2022-12-04T15:21:45;50.07;;;28.97;;
23270;SDS011;11804;51.118;17.058;2022-12-04T15:24:17;53.97;;;31.70;;
23270;SDS011;11804;51.118;17.058;2022-12-04T15:26:46;54.77;;;30.97;;
23270;SDS011;11804;51.118;17.058;2022-12-04T15:29:24;64.30;;;34.17;;
23270;SDS011;11804;51.118;17.058;2022-12-04T15:31:50;54.67;;;32.27;;
23270;SDS011;11804;51.118;17.058;2022-12-04T15:34:23;73.23;;;42.03;;
23270;SDS011;11804;51.118;17.058;2022-12-04T15:37:01;54.60;;;32.30;;
23270;SDS011;11804;51.118;17.058;2022-12-04T15:39:33;56.73;;;31.87;;
23270;SDS011;11804;51.118;17.058;2022-12-04T15:42:14;54.83;;;32.13;;
23270;SDS011;11804;51.118;17.058;2022-12-04T15:44:55;54.63;;;31.93;;
23270;SDS011;11804;51.118;17.058;2022-12-04T15:47:28;57.03;;;32.03;;
23270;SDS011;11804;51.118;17.058;2022-12-04T15:50:08;57.10;;;33.33;;
23270;SDS011;11804;51.118;17.058;2022-12-04T15:52:55;57.37;;;32.60;;
23270;SDS011;11804;51.118;17.058;2022-12-04T16:00:57;57.13;;;32.47;;
23270;SDS011;11804;51.118;17.058;2022-12-04T16:03:37;68.40;;;38.77;;
23270;SDS011;11804;51.118;17.058;2022-12-04T16:06:21;61.97;;;35.30;;
23270;SDS011;11804;51.118;17.058;2022-12-04T16:08:52;59.63;;;32.47;;
23270;SDS011;11804;51.118;17.058;2022-12-04T16:11:23;66.90;;;37.13;;
23270;SDS011;11804;51.118;17.058;2022-12-04T16:16:49;63.00;;;33.17;;
23270;SDS011;11804;51.118;17.058;2022-12-04T16:21:50;66.17;;;35.23;;
23270;SDS011;11804;51.118;17.058;2022-12-04T16:24:18;64.60;;;34.27;;